Blakesburg, Iowa
Current Conditions -  °F | °C
As of 11:53 AM on Friday 31 Oct 2014 (Local Time) from KOTM Reporting Station
Light Snow Light Snow  
Wind Chill: 28°   Ceiling: Unl
Heat Index: 38°   Visibility: 9mi
Dew Point: 21°   Wind: 21mph
Humidity: 51%   Direction: 360°N
Pressure: 30.44"   Gusts: NA
Location:  40.96°N, 92.63°W
Report Text: KOTM 311653Z AUTO 36018KT 9SM -SN CLR 03/M06 A3044 RMK AO2 SLP314 P0000 T00331061
Loading
Personal Weather Stations






























Interactive Weather Map
Tropical Storm Tracking
New forecast layout! Learn more

10-Day Weather Forecast

Advertisements
Track Severe Weather on mobile